Portada
METAR-TAF:

METAR-TAF

Aeroports :

Jendouba, Tunísia

latitud: 36-29N, longitud: 008-48E, altitud: 143 m

Observació

L'informe es va fer fa 36 minuts, a les 20:00 UTC
Vent 5 kt del Nord/Nord-Oest, variant entre Oest/Nord-Oest i Nord
Temperatura 32°C
Humitat 16%
Pressió 1013 hPa

METAR: DTTN 152000Z AUTO 33005KT 300V010 NCD 32/03 Q1013

Hora: 21:36 (20:36 UTC)


TAF: manca

Observacions i pronòstics meteorològics de més de 4000 aeroports (METAR i TAF).

Les estacions disponibles són els punts grocs i vermells al mapa.

Posi el ratolí al punt desitjat per veure el nom de l'estació.

Feu clic per veure les observacions i els pronòstics meteorològics.

Per canviar el mapa: feu clic els botons verds amb una creu de color negre per apropar; al botó verd amb un guió per allunyar la imatge; o en les fletxes verdes per a mapes adjacents.


METAR-TAF: